sensor_id;sensor_type;location;lat;lon;timestamp;P1;durP1;ratioP1;P2;durP2;ratioP2
44147;SDS011;29810;55.848;37.368;2022-08-03T00:01:52;23.73;;;12.20;;
44147;SDS011;29810;55.848;37.368;2022-08-03T00:04:54;21.23;;;12.55;;
44147;SDS011;29810;55.848;37.368;2022-08-03T00:07:55;18.05;;;12.05;;
44147;SDS011;29810;55.848;37.368;2022-08-03T00:10:57;17.87;;;10.90;;
44147;SDS011;29810;55.848;37.368;2022-08-03T00:13:59;23.35;;;12.50;;
44147;SDS011;29810;55.848;37.368;2022-08-03T00:17:00;21.83;;;11.98;;
44147;SDS011;29810;55.848;37.368;2022-08-03T00:20:02;28.12;;;13.32;;
44147;SDS011;29810;55.848;37.368;2022-08-03T00:23:04;24.65;;;12.80;;
44147;SDS011;29810;55.848;37.368;2022-08-03T00:26:06;23.30;;;12.90;;
44147;SDS011;29810;55.848;37.368;2022-08-03T00:29:08;23.25;;;12.60;;
44147;SDS011;29810;55.848;37.368;2022-08-03T00:32:09;26.37;;;13.15;;
44147;SDS011;29810;55.848;37.368;2022-08-03T00:35:11;24.20;;;12.82;;
44147;SDS011;29810;55.848;37.368;2022-08-03T00:38:13;26.37;;;12.90;;
44147;SDS011;29810;55.848;37.368;2022-08-03T00:41:14;23.85;;;12.20;;
44147;SDS011;29810;55.848;37.368;2022-08-03T00:44:16;26.70;;;13.38;;
44147;SDS011;29810;55.848;37.368;2022-08-03T00:47:17;28.80;;;12.85;;
44147;SDS011;29810;55.848;37.368;2022-08-03T00:50:19;23.05;;;12.18;;
44147;SDS011;29810;55.848;37.368;2022-08-03T00:53:23;23.25;;;12.23;;
44147;SDS011;29810;55.848;37.368;2022-08-03T00:56:25;26.33;;;12.30;;
44147;SDS011;29810;55.848;37.368;2022-08-03T00:59:28;25.17;;;12.60;;
44147;SDS011;29810;55.848;37.368;2022-08-03T01:02:29;26.40;;;13.02;;
44147;SDS011;29810;55.848;37.368;2022-08-03T01:19:10;22.80;;;12.15;;
44147;SDS011;29810;55.848;37.368;2022-08-03T01:36:15;16.65;;;11.82;;
44147;SDS011;29810;55.848;37.368;2022-08-03T01:39:19;21.75;;;12.48;;
44147;SDS011;29810;55.848;37.368;2022-08-03T01:42:22;23.58;;;13.10;;
44147;SDS011;29810;55.848;37.368;2022-08-03T01:45:25;20.77;;;12.77;;
44147;SDS011;29810;55.848;37.368;2022-08-03T01:48:28;19.75;;;12.88;;
44147;SDS011;29810;55.848;37.368;2022-08-03T01:51:30;21.27;;;13.30;;
44147;SDS011;29810;55.848;37.368;2022-08-03T01:54:33;21.73;;;12.60;;
44147;SDS011;29810;55.848;37.368;2022-08-03T01:57:38;20.40;;;12.98;;
44147;SDS011;29810;55.848;37.368;2022-08-03T02:00:43;17.90;;;13.40;;
44147;SDS011;29810;55.848;37.368;2022-08-03T02:03:46;22.42;;;12.65;;
44147;SDS011;29810;55.848;37.368;2022-08-03T02:06:50;20.02;;;12.52;;
44147;SDS011;29810;55.848;37.368;2022-08-03T02:09:54;19.87;;;13.02;;
44147;SDS011;29810;55.848;37.368;2022-08-03T02:12:57;20.85;;;12.57;;
44147;SDS011;29810;55.848;37.368;2022-08-03T02:16:02;19.55;;;12.18;;
44147;SDS011;29810;55.848;37.368;2022-08-03T02:19:05;15.60;;;12.07;;
44147;SDS011;29810;55.848;37.368;2022-08-03T02:22:09;19.73;;;12.55;;
44147;SDS011;29810;55.848;37.368;2022-08-03T02:25:12;22.35;;;12.27;;
44147;SDS011;29810;55.848;37.368;2022-08-03T02:28:16;19.58;;;12.30;;
44147;SDS011;29810;55.848;37.368;2022-08-03T02:31:26;22.08;;;12.13;;
44147;SDS011;29810;55.848;37.368;2022-08-03T02:34:31;18.60;;;12.37;;
44147;SDS011;29810;55.848;37.368;2022-08-03T02:37:39;22.95;;;13.07;;
44147;SDS011;29810;55.848;37.368;2022-08-03T02:40:43;22.35;;;12.80;;
44147;SDS011;29810;55.848;37.368;2022-08-03T02:43:47;18.73;;;12.73;;
44147;SDS011;29810;55.848;37.368;2022-08-03T02:46:53;21.42;;;13.23;;
44147;SDS011;29810;55.848;37.368;2022-08-03T02:49:58;20.83;;;12.98;;
44147;SDS011;29810;55.848;37.368;2022-08-03T02:53:02;18.23;;;12.82;;
44147;SDS011;29810;55.848;37.368;2022-08-03T02:56:04;20.65;;;12.90;;
44147;SDS011;29810;55.848;37.368;2022-08-03T02:59:07;23.42;;;13.52;;
44147;SDS011;29810;55.848;37.368;2022-08-03T03:02:10;20.75;;;13.45;;
44147;SDS011;29810;55.848;37.368;2022-08-03T03:05:12;20.85;;;13.07;;
44147;SDS011;29810;55.848;37.368;2022-08-03T03:08:16;16.50;;;13.68;;
44147;SDS011;29810;55.848;37.368;2022-08-03T03:11:20;20.75;;;13.23;;
44147;SDS011;29810;55.848;37.368;2022-08-03T03:14:22;20.80;;;13.55;;
44147;SDS011;29810;55.848;37.368;2022-08-03T03:17:24;17.33;;;12.57;;
44147;SDS011;29810;55.848;37.368;2022-08-03T03:20:27;17.52;;;12.60;;
44147;SDS011;29810;55.848;37.368;2022-08-03T03:23:30;17.12;;;11.98;;
44147;SDS011;29810;55.848;37.368;2022-08-03T03:26:36;17.45;;;12.65;;
44147;SDS011;29810;55.848;37.368;2022-08-03T03:29:38;18.10;;;12.05;;
44147;SDS011;29810;55.848;37.368;2022-08-03T03:32:40;18.23;;;12.45;;
44147;SDS011;29810;55.848;37.368;2022-08-03T03:35:42;17.67;;;12.13;;
44147;SDS011;29810;55.848;37.368;2022-08-03T03:38:45;17.50;;;12.02;;
44147;SDS011;29810;55.848;37.368;2022-08-03T03:41:47;17.65;;;12.57;;
44147;SDS011;29810;55.848;37.368;2022-08-03T03:44:48;21.87;;;12.68;;
44147;SDS011;29810;55.848;37.368;2022-08-03T03:47:50;19.02;;;13.40;;
44147;SDS011;29810;55.848;37.368;2022-08-03T03:50:52;21.48;;;12.57;;
44147;SDS011;29810;55.848;37.368;2022-08-03T03:53:58;21.60;;;13.15;;
44147;SDS011;29810;55.848;37.368;2022-08-03T03:57:00;16.98;;;12.60;;
44147;SDS011;29810;55.848;37.368;2022-08-03T04:00:02;16.62;;;13.02;;
44147;SDS011;29810;55.848;37.368;2022-08-03T04:03:05;17.45;;;12.70;;
44147;SDS011;29810;55.848;37.368;2022-08-03T04:06:07;19.50;;;12.93;;
44147;SDS011;29810;55.848;37.368;2022-08-03T04:09:27;20.27;;;13.20;;
44147;SDS011;29810;55.848;37.368;2022-08-03T04:12:48;17.15;;;12.68;;
44147;SDS011;29810;55.848;37.368;2022-08-03T04:15:52;18.67;;;12.63;;
44147;SDS011;29810;55.848;37.368;2022-08-03T04:18:59;20.77;;;13.25;;
44147;SDS011;29810;55.848;37.368;2022-08-03T04:22:04;19.75;;;13.05;;
44147;SDS011;29810;55.848;37.368;2022-08-03T04:25:09;16.77;;;12.37;;
44147;SDS011;29810;55.848;37.368;2022-08-03T04:28:18;17.73;;;13.15;;
44147;SDS011;29810;55.848;37.368;2022-08-03T04:31:22;17.27;;;12.63;;
44147;SDS011;29810;55.848;37.368;2022-08-03T04:34:26;16.23;;;13.15;;
44147;SDS011;29810;55.848;37.368;2022-08-03T04:40:40;22.52;;;13.10;;
44147;SDS011;29810;55.848;37.368;2022-08-03T04:43:44;18.52;;;12.45;;
44147;SDS011;29810;55.848;37.368;2022-08-03T04:46:47;19.67;;;12.55;;
44147;SDS011;29810;55.848;37.368;2022-08-03T04:49:48;19.33;;;11.95;;
44147;SDS011;29810;55.848;37.368;2022-08-03T04:52:51;20.50;;;12.02;;
44147;SDS011;29810;55.848;37.368;2022-08-03T04:55:52;19.25;;;12.00;;
44147;SDS011;29810;55.848;37.368;2022-08-03T04:58:54;21.00;;;12.20;;
44147;SDS011;29810;55.848;37.368;2022-08-03T05:01:56;19.62;;;12.50;;
44147;SDS011;29810;55.848;37.368;2022-08-03T05:04:57;17.48;;;11.38;;
44147;SDS011;29810;55.848;37.368;2022-08-03T05:07:59;18.27;;;11.85;;
44147;SDS011;29810;55.848;37.368;2022-08-03T05:11:01;20.58;;;11.20;;
44147;SDS011;29810;55.848;37.368;2022-08-03T05:14:02;17.05;;;12.25;;
44147;SDS011;29810;55.848;37.368;2022-08-03T05:17:04;16.27;;;11.80;;
44147;SDS011;29810;55.848;37.368;2022-08-03T05:20:06;16.00;;;11.68;;
44147;SDS011;29810;55.848;37.368;2022-08-03T05:23:08;18.45;;;10.75;;
44147;SDS011;29810;55.848;37.368;2022-08-03T05:26:10;17.25;;;11.73;;
44147;SDS011;29810;55.848;37.368;2022-08-03T05:29:11;17.77;;;11.30;;
44147;SDS011;29810;55.848;37.368;2022-08-03T05:32:13;12.50;;;10.35;;
44147;SDS011;29810;55.848;37.368;2022-08-03T05:35:15;16.48;;;10.73;;
44147;SDS011;29810;55.848;37.368;2022-08-03T05:38:17;14.23;;;10.10;;
44147;SDS011;29810;55.848;37.368;2022-08-03T05:41:18;13.77;;;9.65;;
44147;SDS011;29810;55.848;37.368;2022-08-03T05:44:20;12.57;;;9.30;;
44147;SDS011;29810;55.848;37.368;2022-08-03T05:47:21;15.95;;;9.82;;
44147;SDS011;29810;55.848;37.368;2022-08-03T05:50:23;11.95;;;9.45;;
44147;SDS011;29810;55.848;37.368;2022-08-03T05:53:24;14.20;;;10.23;;
44147;SDS011;29810;55.848;37.368;2022-08-03T05:56:26;14.65;;;9.95;;
44147;SDS011;29810;55.848;37.368;2022-08-03T05:59:28;14.20;;;9.45;;
44147;SDS011;29810;55.848;37.368;2022-08-03T06:02:30;15.98;;;10.23;;
44147;SDS011;29810;55.848;37.368;2022-08-03T06:05:31;15.20;;;9.95;;
44147;SDS011;29810;55.848;37.368;2022-08-03T06:08:36;14.13;;;9.98;;
44147;SDS011;29810;55.848;37.368;2022-08-03T06:11:38;15.82;;;8.23;;
44147;SDS011;29810;55.848;37.368;2022-08-03T06:14:40;12.98;;;8.27;;
44147;SDS011;29810;55.848;37.368;2022-08-03T06:17:45;12.63;;;8.18;;
44147;SDS011;29810;55.848;37.368;2022-08-03T06:20:50;13.48;;;8.50;;
44147;SDS011;29810;55.848;37.368;2022-08-03T06:23:52;13.95;;;8.63;;
44147;SDS011;29810;55.848;37.368;2022-08-03T06:26:54;12.35;;;8.35;;
44147;SDS011;29810;55.848;37.368;2022-08-03T06:29:56;12.37;;;8.32;;
44147;SDS011;29810;55.848;37.368;2022-08-03T06:32:57;15.68;;;9.00;;
44147;SDS011;29810;55.848;37.368;2022-08-03T06:35:59;19.70;;;9.90;;
44147;SDS011;29810;55.848;37.368;2022-08-03T06:39:01;14.50;;;9.10;;
44147;SDS011;29810;55.848;37.368;2022-08-03T06:42:02;12.43;;;8.30;;
44147;SDS011;29810;55.848;37.368;2022-08-03T06:45:05;18.40;;;8.07;;
44147;SDS011;29810;55.848;37.368;2022-08-03T06:48:09;13.75;;;7.60;;
44147;SDS011;29810;55.848;37.368;2022-08-03T06:51:11;14.75;;;8.20;;
44147;SDS011;29810;55.848;37.368;2022-08-03T06:54:14;14.02;;;7.45;;
44147;SDS011;29810;55.848;37.368;2022-08-03T06:57:15;13.82;;;7.70;;
44147;SDS011;29810;55.848;37.368;2022-08-03T07:00:19;12.45;;;7.50;;
44147;SDS011;29810;55.848;37.368;2022-08-03T07:03:21;13.50;;;7.35;;
44147;SDS011;29810;55.848;37.368;2022-08-03T07:06:22;14.85;;;7.78;;
44147;SDS011;29810;55.848;37.368;2022-08-03T07:09:24;13.45;;;7.30;;
44147;SDS011;29810;55.848;37.368;2022-08-03T07:12:27;9.55;;;6.10;;
44147;SDS011;29810;55.848;37.368;2022-08-03T07:15:29;8.52;;;5.40;;
44147;SDS011;29810;55.848;37.368;2022-08-03T07:18:31;8.35;;;5.20;;
44147;SDS011;29810;55.848;37.368;2022-08-03T07:21:33;6.60;;;4.80;;
44147;SDS011;29810;55.848;37.368;2022-08-03T07:24:34;10.43;;;4.95;;
44147;SDS011;29810;55.848;37.368;2022-08-03T07:27:36;10.15;;;4.53;;
44147;SDS011;29810;55.848;37.368;2022-08-03T07:30:38;6.20;;;4.40;;
44147;SDS011;29810;55.848;37.368;2022-08-03T07:33:39;7.15;;;4.25;;
44147;SDS011;29810;55.848;37.368;2022-08-03T07:36:41;7.55;;;4.62;;
44147;SDS011;29810;55.848;37.368;2022-08-03T07:39:42;7.37;;;4.53;;
44147;SDS011;29810;55.848;37.368;2022-08-03T07:42:45;6.00;;;4.37;;
44147;SDS011;29810;55.848;37.368;2022-08-03T07:45:46;4.28;;;3.70;;
44147;SDS011;29810;55.848;37.368;2022-08-03T07:48:48;5.60;;;3.90;;
44147;SDS011;29810;55.848;37.368;2022-08-03T07:51:49;5.82;;;4.10;;
44147;SDS011;29810;55.848;37.368;2022-08-03T07:55:10;6.70;;;4.10;;
44147;SDS011;29810;55.848;37.368;2022-08-03T07:58:12;5.55;;;4.35;;
44147;SDS011;29810;55.848;37.368;2022-08-03T08:01:17;10.75;;;4.55;;
44147;SDS011;29810;55.848;37.368;2022-08-03T08:04:19;6.35;;;4.28;;
44147;SDS011;29810;55.848;37.368;2022-08-03T08:07:21;7.40;;;4.25;;
44147;SDS011;29810;55.848;37.368;2022-08-03T08:10:22;8.73;;;4.35;;
44147;SDS011;29810;55.848;37.368;2022-08-03T08:13:24;6.53;;;3.70;;
44147;SDS011;29810;55.848;37.368;2022-08-03T08:16:25;6.25;;;4.28;;
44147;SDS011;29810;55.848;37.368;2022-08-03T08:19:27;4.90;;;3.75;;
44147;SDS011;29810;55.848;37.368;2022-08-03T08:22:28;6.05;;;4.65;;
44147;SDS011;29810;55.848;37.368;2022-08-03T08:25:31;5.47;;;4.35;;
44147;SDS011;29810;55.848;37.368;2022-08-03T08:28:34;5.85;;;4.10;;
44147;SDS011;29810;55.848;37.368;2022-08-03T08:31:35;4.57;;;4.18;;
44147;SDS011;29810;55.848;37.368;2022-08-03T08:34:37;5.57;;;4.40;;
44147;SDS011;29810;55.848;37.368;2022-08-03T08:37:38;4.70;;;4.20;;
44147;SDS011;29810;55.848;37.368;2022-08-03T08:40:41;7.95;;;4.65;;
44147;SDS011;29810;55.848;37.368;2022-08-03T08:43:42;7.07;;;4.35;;
44147;SDS011;29810;55.848;37.368;2022-08-03T08:46:44;7.20;;;4.78;;
44147;SDS011;29810;55.848;37.368;2022-08-03T08:49:46;5.93;;;4.20;;
44147;SDS011;29810;55.848;37.368;2022-08-03T08:52:52;6.55;;;4.53;;
44147;SDS011;29810;55.848;37.368;2022-08-03T08:55:58;4.80;;;4.40;;
44147;SDS011;29810;55.848;37.368;2022-08-03T08:59:00;6.35;;;4.85;;
44147;SDS011;29810;55.848;37.368;2022-08-03T09:02:02;7.10;;;5.00;;
44147;SDS011;29810;55.848;37.368;2022-08-03T09:05:04;7.30;;;4.60;;
44147;SDS011;29810;55.848;37.368;2022-08-03T09:08:06;7.07;;;5.20;;
44147;SDS011;29810;55.848;37.368;2022-08-03T09:11:08;6.70;;;4.50;;
44147;SDS011;29810;55.848;37.368;2022-08-03T09:14:09;6.45;;;4.80;;
44147;SDS011;29810;55.848;37.368;2022-08-03T09:17:11;7.62;;;4.40;;
44147;SDS011;29810;55.848;37.368;2022-08-03T09:20:13;5.87;;;4.82;;
44147;SDS011;29810;55.848;37.368;2022-08-03T09:23:15;7.00;;;4.60;;
44147;SDS011;29810;55.848;37.368;2022-08-03T09:26:27;6.93;;;4.90;;
44147;SDS011;29810;55.848;37.368;2022-08-03T09:29:31;8.45;;;4.93;;
44147;SDS011;29810;55.848;37.368;2022-08-03T09:32:33;6.70;;;4.75;;
44147;SDS011;29810;55.848;37.368;2022-08-03T09:35:46;6.87;;;4.70;;
44147;SDS011;29810;55.848;37.368;2022-08-03T09:39:06;5.60;;;4.60;;
44147;SDS011;29810;55.848;37.368;2022-08-03T09:42:15;6.35;;;4.97;;
44147;SDS011;29810;55.848;37.368;2022-08-03T09:45:27;6.43;;;4.78;;
44147;SDS011;29810;55.848;37.368;2022-08-03T09:48:30;9.65;;;5.25;;
44147;SDS011;29810;55.848;37.368;2022-08-03T09:51:34;7.43;;;4.72;;
44147;SDS011;29810;55.848;37.368;2022-08-03T09:54:36;7.35;;;5.10;;
44147;SDS011;29810;55.848;37.368;2022-08-03T09:57:38;9.02;;;5.12;;
44147;SDS011;29810;55.848;37.368;2022-08-03T10:00:53;8.98;;;5.00;;
44147;SDS011;29810;55.848;37.368;2022-08-03T10:03:58;10.52;;;5.30;;
44147;SDS011;29810;55.848;37.368;2022-08-03T10:07:06;9.60;;;5.57;;
44147;SDS011;29810;55.848;37.368;2022-08-03T10:10:10;8.02;;;5.07;;
44147;SDS011;29810;55.848;37.368;2022-08-03T10:13:12;8.43;;;6.43;;
44147;SDS011;29810;55.848;37.368;2022-08-03T10:16:15;9.43;;;5.30;;
44147;SDS011;29810;55.848;37.368;2022-08-03T10:19:16;6.93;;;5.45;;
44147;SDS011;29810;55.848;37.368;2022-08-03T10:22:18;8.32;;;5.30;;
44147;SDS011;29810;55.848;37.368;2022-08-03T10:25:22;9.48;;;6.03;;
44147;SDS011;29810;55.848;37.368;2022-08-03T10:28:26;7.85;;;5.57;;
44147;SDS011;29810;55.848;37.368;2022-08-03T10:31:37;8.77;;;5.82;;
44147;SDS011;29810;55.848;37.368;2022-08-03T10:34:43;7.15;;;5.65;;
44147;SDS011;29810;55.848;37.368;2022-08-03T10:37:54;8.90;;;5.43;;
44147;SDS011;29810;55.848;37.368;2022-08-03T10:40:59;9.52;;;6.15;;
44147;SDS011;29810;55.848;37.368;2022-08-03T10:44:03;7.07;;;5.97;;
44147;SDS011;29810;55.848;37.368;2022-08-03T10:47:08;8.35;;;5.57;;
44147;SDS011;29810;55.848;37.368;2022-08-03T10:50:10;7.85;;;5.85;;
44147;SDS011;29810;55.848;37.368;2022-08-03T10:53:13;9.48;;;6.30;;
44147;SDS011;29810;55.848;37.368;2022-08-03T11:03:04;9.63;;;6.15;;
44147;SDS011;29810;55.848;37.368;2022-08-03T11:06:18;6.65;;;5.85;;
44147;SDS011;29810;55.848;37.368;2022-08-03T11:09:21;9.60;;;5.85;;
44147;SDS011;29810;55.848;37.368;2022-08-03T11:12:30;13.27;;;6.12;;
44147;SDS011;29810;55.848;37.368;2022-08-03T11:15:33;8.27;;;6.03;;
44147;SDS011;29810;55.848;37.368;2022-08-03T11:18:36;10.18;;;6.20;;
44147;SDS011;29810;55.848;37.368;2022-08-03T11:21:56;6.75;;;6.05;;
44147;SDS011;29810;55.848;37.368;2022-08-03T11:24:59;9.68;;;6.25;;
44147;SDS011;29810;55.848;37.368;2022-08-03T11:34:32;6.53;;;5.82;;
44147;SDS011;29810;55.848;37.368;2022-08-03T11:37:34;8.77;;;6.47;;
44147;SDS011;29810;55.848;37.368;2022-08-03T11:40:38;7.90;;;5.70;;
44147;SDS011;29810;55.848;37.368;2022-08-03T11:43:43;13.20;;;6.65;;
44147;SDS011;29810;55.848;37.368;2022-08-03T11:46:45;12.00;;;6.53;;
44147;SDS011;29810;55.848;37.368;2022-08-03T11:49:48;8.32;;;5.90;;
44147;SDS011;29810;55.848;37.368;2022-08-03T11:52:50;8.52;;;6.32;;
44147;SDS011;29810;55.848;37.368;2022-08-03T11:55:52;9.18;;;6.10;;
44147;SDS011;29810;55.848;37.368;2022-08-03T11:58:54;6.78;;;5.82;;
44147;SDS011;29810;55.848;37.368;2022-08-03T12:05:12;10.60;;;6.12;;
44147;SDS011;29810;55.848;37.368;2022-08-03T12:08:14;8.68;;;5.80;;
44147;SDS011;29810;55.848;37.368;2022-08-03T12:11:18;6.70;;;5.97;;
44147;SDS011;29810;55.848;37.368;2022-08-03T12:14:19;14.10;;;5.93;;
44147;SDS011;29810;55.848;37.368;2022-08-03T12:17:21;7.80;;;6.20;;
44147;SDS011;29810;55.848;37.368;2022-08-03T12:20:24;10.05;;;6.05;;
44147;SDS011;29810;55.848;37.368;2022-08-03T12:23:27;8.50;;;6.20;;
44147;SDS011;29810;55.848;37.368;2022-08-03T12:26:29;7.50;;;6.18;;
44147;SDS011;29810;55.848;37.368;2022-08-03T12:29:50;9.00;;;6.15;;
44147;SDS011;29810;55.848;37.368;2022-08-03T12:32:53;10.63;;;6.65;;
44147;SDS011;29810;55.848;37.368;2022-08-03T12:36:04;10.15;;;6.60;;
44147;SDS011;29810;55.848;37.368;2022-08-03T12:39:07;13.77;;;6.20;;
44147;SDS011;29810;55.848;37.368;2022-08-03T12:42:09;9.60;;;6.07;;
44147;SDS011;29810;55.848;37.368;2022-08-03T12:45:44;14.57;;;6.82;;
44147;SDS011;29810;55.848;37.368;2022-08-03T12:52:11;7.60;;;6.50;;
44147;SDS011;29810;55.848;37.368;2022-08-03T12:55:17;11.18;;;6.28;;
44147;SDS011;29810;55.848;37.368;2022-08-03T12:58:30;10.23;;;6.25;;
44147;SDS011;29810;55.848;37.368;2022-08-03T13:01:36;8.20;;;5.75;;
44147;SDS011;29810;55.848;37.368;2022-08-03T13:04:38;7.97;;;6.15;;
44147;SDS011;29810;55.848;37.368;2022-08-03T13:07:43;8.48;;;5.93;;
44147;SDS011;29810;55.848;37.368;2022-08-03T13:10:46;12.93;;;6.87;;
44147;SDS011;29810;55.848;37.368;2022-08-03T13:13:49;9.63;;;6.00;;
44147;SDS011;29810;55.848;37.368;2022-08-03T13:20:25;12.25;;;7.95;;
44147;SDS011;29810;55.848;37.368;2022-08-03T13:23:26;7.45;;;6.18;;
44147;SDS011;29810;55.848;37.368;2022-08-03T13:26:28;9.68;;;6.10;;
44147;SDS011;29810;55.848;37.368;2022-08-03T13:29:29;10.35;;;5.57;;
44147;SDS011;29810;55.848;37.368;2022-08-03T13:32:31;9.85;;;6.43;;
44147;SDS011;29810;55.848;37.368;2022-08-03T13:35:33;8.15;;;6.12;;
44147;SDS011;29810;55.848;37.368;2022-08-03T13:38:35;10.00;;;6.03;;
44147;SDS011;29810;55.848;37.368;2022-08-03T13:41:36;10.02;;;6.03;;
44147;SDS011;29810;55.848;37.368;2022-08-03T13:44:38;7.53;;;5.93;;
44147;SDS011;29810;55.848;37.368;2022-08-03T13:47:39;9.15;;;6.90;;
44147;SDS011;29810;55.848;37.368;2022-08-03T13:50:41;9.32;;;6.72;;
44147;SDS011;29810;55.848;37.368;2022-08-03T13:53:42;7.93;;;6.40;;
44147;SDS011;29810;55.848;37.368;2022-08-03T13:56:44;10.82;;;5.62;;
44147;SDS011;29810;55.848;37.368;2022-08-03T13:59:52;8.43;;;6.30;;
44147;SDS011;29810;55.848;37.368;2022-08-03T14:02:57;8.30;;;6.07;;
44147;SDS011;29810;55.848;37.368;2022-08-03T14:06:00;10.15;;;6.30;;
44147;SDS011;29810;55.848;37.368;2022-08-03T14:09:02;9.55;;;6.15;;
44147;SDS011;29810;55.848;37.368;2022-08-03T14:12:03;8.18;;;5.90;;
44147;SDS011;29810;55.848;37.368;2022-08-03T14:15:05;11.98;;;6.97;;
44147;SDS011;29810;55.848;37.368;2022-08-03T14:18:10;9.97;;;6.27;;
44147;SDS011;29810;55.848;37.368;2022-08-03T14:21:11;13.10;;;7.20;;
44147;SDS011;29810;55.848;37.368;2022-08-03T14:24:13;10.07;;;6.30;;
44147;SDS011;29810;55.848;37.368;2022-08-03T14:27:15;10.23;;;5.72;;
44147;SDS011;29810;55.848;37.368;2022-08-03T14:30:17;10.40;;;6.03;;
44147;SDS011;29810;55.848;37.368;2022-08-03T14:33:18;8.40;;;6.00;;
44147;SDS011;29810;55.848;37.368;2022-08-03T14:36:20;8.15;;;5.95;;
44147;SDS011;29810;55.848;37.368;2022-08-03T14:39:22;9.65;;;5.90;;
44147;SDS011;29810;55.848;37.368;2022-08-03T14:42:23;9.57;;;5.62;;
44147;SDS011;29810;55.848;37.368;2022-08-03T14:45:25;8.70;;;6.37;;
44147;SDS011;29810;55.848;37.368;2022-08-03T14:48:27;8.32;;;5.62;;
44147;SDS011;29810;55.848;37.368;2022-08-03T14:51:28;9.80;;;5.68;;
44147;SDS011;29810;55.848;37.368;2022-08-03T14:54:30;11.55;;;6.60;;
44147;SDS011;29810;55.848;37.368;2022-08-03T14:57:31;13.68;;;6.22;;
44147;SDS011;29810;55.848;37.368;2022-08-03T15:00:33;13.85;;;6.95;;
44147;SDS011;29810;55.848;37.368;2022-08-03T15:03:35;10.38;;;6.87;;
44147;SDS011;29810;55.848;37.368;2022-08-03T15:06:37;14.98;;;6.75;;
44147;SDS011;29810;55.848;37.368;2022-08-03T15:09:38;10.57;;;6.72;;
44147;SDS011;29810;55.848;37.368;2022-08-03T15:12:40;11.20;;;7.07;;
44147;SDS011;29810;55.848;37.368;2022-08-03T15:15:41;17.37;;;6.60;;
44147;SDS011;29810;55.848;37.368;2022-08-03T15:18:43;12.25;;;7.03;;
44147;SDS011;29810;55.848;37.368;2022-08-03T15:21:44;11.30;;;7.35;;
44147;SDS011;29810;55.848;37.368;2022-08-03T15:24:46;10.48;;;6.70;;
44147;SDS011;29810;55.848;37.368;2022-08-03T15:27:48;12.13;;;6.93;;
44147;SDS011;29810;55.848;37.368;2022-08-03T15:30:52;9.40;;;6.78;;
44147;SDS011;29810;55.848;37.368;2022-08-03T15:33:53;8.77;;;6.50;;
44147;SDS011;29810;55.848;37.368;2022-08-03T15:36:55;11.52;;;7.47;;
44147;SDS011;29810;55.848;37.368;2022-08-03T15:39:56;12.55;;;7.30;;
44147;SDS011;29810;55.848;37.368;2022-08-03T15:42:59;9.95;;;6.80;;
44147;SDS011;29810;55.848;37.368;2022-08-03T15:46:00;10.77;;;7.00;;
44147;SDS011;29810;55.848;37.368;2022-08-03T15:49:03;9.98;;;7.25;;
44147;SDS011;29810;55.848;37.368;2022-08-03T15:52:05;12.00;;;7.70;;
44147;SDS011;29810;55.848;37.368;2022-08-03T15:55:07;12.43;;;7.32;;
44147;SDS011;29810;55.848;37.368;2022-08-03T15:58:11;13.38;;;8.20;;
44147;SDS011;29810;55.848;37.368;2022-08-03T16:01:16;12.63;;;8.03;;
44147;SDS011;29810;55.848;37.368;2022-08-03T16:04:20;12.95;;;8.30;;
44147;SDS011;29810;55.848;37.368;2022-08-03T16:07:22;13.38;;;9.07;;
44147;SDS011;29810;55.848;37.368;2022-08-03T16:10:42;12.82;;;8.20;;
44147;SDS011;29810;55.848;37.368;2022-08-03T16:13:43;14.27;;;9.30;;
44147;SDS011;29810;55.848;37.368;2022-08-03T16:16:46;15.38;;;7.95;;
44147;SDS011;29810;55.848;37.368;2022-08-03T16:19:47;14.07;;;7.37;;
44147;SDS011;29810;55.848;37.368;2022-08-03T16:22:49;11.52;;;7.10;;
44147;SDS011;29810;55.848;37.368;2022-08-03T16:25:51;13.13;;;7.97;;
44147;SDS011;29810;55.848;37.368;2022-08-03T16:28:53;13.75;;;8.48;;
44147;SDS011;29810;55.848;37.368;2022-08-03T16:31:54;16.02;;;8.60;;
44147;SDS011;29810;55.848;37.368;2022-08-03T16:34:56;15.15;;;8.13;;
44147;SDS011;29810;55.848;37.368;2022-08-03T16:37:58;9.52;;;7.78;;
44147;SDS011;29810;55.848;37.368;2022-08-03T16:41:00;14.50;;;8.13;;
44147;SDS011;29810;55.848;37.368;2022-08-03T16:44:01;13.68;;;8.02;;
44147;SDS011;29810;55.848;37.368;2022-08-03T16:47:03;12.57;;;7.90;;
44147;SDS011;29810;55.848;37.368;2022-08-03T16:50:05;12.98;;;8.10;;
44147;SDS011;29810;55.848;37.368;2022-08-03T16:53:08;12.57;;;8.05;;
44147;SDS011;29810;55.848;37.368;2022-08-03T16:56:10;13.13;;;8.60;;
44147;SDS011;29810;55.848;37.368;2022-08-03T16:59:15;14.77;;;9.15;;
44147;SDS011;29810;55.848;37.368;2022-08-03T17:02:20;11.20;;;8.23;;
44147;SDS011;29810;55.848;37.368;2022-08-03T17:05:24;15.80;;;8.57;;
44147;SDS011;29810;55.848;37.368;2022-08-03T17:08:26;15.82;;;9.07;;
44147;SDS011;29810;55.848;37.368;2022-08-03T17:11:28;14.25;;;9.77;;
44147;SDS011;29810;55.848;37.368;2022-08-03T17:14:30;16.02;;;9.77;;
44147;SDS011;29810;55.848;37.368;2022-08-03T17:17:32;18.23;;;9.93;;
44147;SDS011;29810;55.848;37.368;2022-08-03T17:20:35;18.48;;;10.23;;
44147;SDS011;29810;55.848;37.368;2022-08-03T17:23:44;16.17;;;10.32;;
44147;SDS011;29810;55.848;37.368;2022-08-03T17:27:01;18.30;;;9.98;;
44147;SDS011;29810;55.848;37.368;2022-08-03T17:30:10;20.77;;;10.45;;
44147;SDS011;29810;55.848;37.368;2022-08-03T17:33:14;19.30;;;10.10;;
44147;SDS011;29810;55.848;37.368;2022-08-03T17:36:16;15.88;;;10.05;;
44147;SDS011;29810;55.848;37.368;2022-08-03T17:39:22;13.75;;;9.13;;
44147;SDS011;29810;55.848;37.368;2022-08-03T17:42:25;12.43;;;8.35;;
44147;SDS011;29810;55.848;37.368;2022-08-03T17:45:28;13.27;;;8.57;;
44147;SDS011;29810;55.848;37.368;2022-08-03T17:48:30;16.40;;;8.43;;
44147;SDS011;29810;55.848;37.368;2022-08-03T17:54:44;20.88;;;9.75;;
44147;SDS011;29810;55.848;37.368;2022-08-03T17:57:58;17.00;;;10.00;;
44147;SDS011;29810;55.848;37.368;2022-08-03T18:01:06;16.62;;;9.60;;
44147;SDS011;29810;55.848;37.368;2022-08-03T18:04:30;18.95;;;9.98;;
44147;SDS011;29810;55.848;37.368;2022-08-03T18:07:44;21.33;;;10.10;;
44147;SDS011;29810;55.848;37.368;2022-08-03T18:10:47;16.55;;;8.80;;
44147;SDS011;29810;55.848;37.368;2022-08-03T18:14:15;19.65;;;9.52;;
44147;SDS011;29810;55.848;37.368;2022-08-03T18:17:20;16.17;;;9.30;;
44147;SDS011;29810;55.848;37.368;2022-08-03T18:20:29;14.85;;;9.70;;
44147;SDS011;29810;55.848;37.368;2022-08-03T18:23:33;19.70;;;9.18;;
44147;SDS011;29810;55.848;37.368;2022-08-03T18:26:36;16.55;;;9.32;;
44147;SDS011;29810;55.848;37.368;2022-08-03T18:29:38;14.60;;;10.10;;
44147;SDS011;29810;55.848;37.368;2022-08-03T18:32:42;13.93;;;8.82;;
44147;SDS011;29810;55.848;37.368;2022-08-03T18:35:44;16.87;;;9.20;;
44147;SDS011;29810;55.848;37.368;2022-08-03T18:38:46;16.02;;;9.63;;
44147;SDS011;29810;55.848;37.368;2022-08-03T18:41:51;14.53;;;9.03;;
44147;SDS011;29810;55.848;37.368;2022-08-03T18:44:53;12.98;;;10.00;;
44147;SDS011;29810;55.848;37.368;2022-08-03T18:51:27;12.27;;;9.13;;
44147;SDS011;29810;55.848;37.368;2022-08-03T18:54:37;18.83;;;10.45;;